• Join FlightAware (Why Join?)
  • Login
  • US Flag 
04:40AM EDT


 

Airport Tracker/Info


-or-


 

Live Flight TrackerFlight Track Log ✈ GJS3706 ✈ 01-Sep-2013 ✈ KBTV - KORD

Flight Track Log - Related Links

Times and Time Zones

All times are in EDT time to prevent confusion due to time zone crossing. See the GJS3706 flight status page for this flight to view local times or setup timezone preferences in your user account.

Time Position Orientation Groundspeed Altitude Reporting Facility
EDT Latitude Longitude Course Direction KTS MPH feet Rate Location/Type
12:08PM 44.3816 -73.6304 253° West  Level FlightAware Approximate
12:09PM 44.3595 -73.7502 259° West  Level FlightAware Approximate
12:10PM 44.3407 -73.8822 259° West  Level FlightAware Approximate
12:11PM 44.3183 -74.0129 255° West  Level FlightAware Approximate
12:12PM 44.2936 -74.1429 255° West  Level FlightAware Approximate
12:13PM 44.2687 -74.2727 255° West  Level FlightAware Approximate
12:14PM 44.2482 -74.4039 258° West  Level FlightAware Approximate
12:15PM 44.2275 -74.5351 257° West  Level FlightAware Approximate
12:16PM 44.2037 -74.6651 254° West  Level FlightAware Approximate
12:17PM 44.1778 -74.7944 255° West  Level FlightAware Approximate
12:18PM 44.1521 -74.9236 255° West  Level FlightAware Approximate
12:19PM 44.1262 -75.0528 254° West  Level FlightAware Approximate
12:19PM 44.4703 -73.3564 255° West 254 292 6,000  Level Boston Center
12:20PM 44.1048 -75.1833 259° West  Level FlightAware Approximate
12:20PM 44.4528 -73.4581 256° West 280 322 8,600  Level Boston Center
12:21PM 44.0808 -75.3130 255° West  Level FlightAware Approximate
12:21PM 44.4331 -73.5650 256° West 280 322 10,900  Level Boston Center
12:22PM 44.0550 -75.4420 254° West  Level FlightAware Approximate
12:22PM 44.4108 -73.6869 256° West 304 350 12,500  Level Boston Center
12:23PM 44.0300 -75.5713 255° West  Level FlightAware Approximate
12:23PM 44.3886 -73.8056 255° West 332 382 14,200  Level Boston Center
12:24PM 44.0052 -75.7006 255° West  Level FlightAware Approximate
12:24PM 44.3661 -73.9356 256° West 348 400 16,500  Level Boston Center
12:25PM 44.3414 -74.0686 255° West 353 406 18,200 1,740 Climbing Boston Center
12:26PM 44.3142 -74.2186 256° West 353 406 20,000 1,620 Climbing Boston Center
12:27PM 44.2850 -74.3600 254° West 369 425 21,500 1,500 Climbing Boston Center
12:28PM 44.2594 -74.5069 256° West 376 433 23,000 1,440 Climbing Boston Center
12:29PM 44.2297 -74.6536 254° West 387 445 24,500 1,440 Climbing Boston Center
12:30PM 44.2017 -74.8033 255° West 392 451 26,000 1,320 Climbing Boston Center
12:31PM 44.1756 -74.9528 256° West 398 458 27,200 1,080 Climbing Boston Center
12:32PM 44.1450 -75.1047 254° West 403 464 28,200 960 Climbing Boston Center
12:33PM 44.1164 -75.2597 256° West 414 476 29,200 960 Climbing Boston Center
12:34PM 44.0853 -75.4172 255° West 414 476 30,200 960 Climbing Boston Center
12:35PM 44.0539 -75.5747 255° West 419 482 31,200 960 Climbing Boston Center
12:36PM 44.0244 -75.7378 256° West 430 495 32,200 1,020 Climbing Boston Center
12:37PM 43.9906 -75.8947 253° West 430 495 33,300 1,020 Climbing Boston Center
12:38PM 43.9586 -76.0514 254° West 430 495 34,300 960 Climbing Boston Center
12:39PM 43.9431 -76.2119 262° West 430 495 35,300 960 Climbing Boston Center
12:40PM 43.9272 -76.3725 262° West 425 489 36,300 840 Climbing Boston Center
12:41PM 43.9133 -76.5303 263° West 425 489 37,100 600 Climbing Boston Center
12:42PM 43.8833 -76.7667 260° West 410 472 38,000 300 Climbing Toronto Center
12:43PM 43.8667 -76.9500 263° West 420 483 38,000  Level Toronto Center
12:44PM 43.8333 -77.1167 255° West 430 495 38,000  Level Toronto Center
12:45PM 43.8167 -77.2833 262° West 430 495 38,000  Level Toronto Center
12:46PM 43.8167 -77.4333 270° West 440 506 38,000  Level Toronto Center
12:47PM 43.8000 -77.6000 262° West 440 506 38,000  Level Toronto Center
12:48PM 43.7833 -77.7667 262° West 440 506 38,000  Level Toronto Center
12:49PM 43.7667 -77.9167 261° West 430 495 38,000  Level Toronto Center
12:50PM 43.7333 -78.0833 255° West 430 495 38,000  Level Toronto Center
12:51PM 43.7167 -78.2500 262° West 420 483 38,000  Level Toronto Center
12:52PM 43.7000 -78.4167 262° West 420 483 38,000  Level Toronto Center
12:53PM 43.7000 -78.5667 270° West 420 483 38,000  Level Toronto Center
12:54PM 43.6833 -78.7333 262° West 420 483 38,000  Level Toronto Center
12:55PM 43.6667 -78.9000 262° West 420 483 38,000  Level Toronto Center
12:56PM 43.6333 -79.0500 253° West 420 483 38,000  Level Toronto Center
12:57PM 43.6167 -79.2167 262° West 420 483 38,000  Level Toronto Center
12:58PM 43.6000 -79.3500 260° West 420 483 38,000  Level Toronto Center
12:59PM 43.5667 -79.5167 255° West 420 483 38,000  Level Toronto Center
01:00PM 43.5500 -79.6833 262° West 430 495 38,000  Level Toronto Center
01:01PM 43.5333 -79.8333 261° West 420 483 38,000  Level Toronto Center
01:02PM 43.5167 -80.0000 262° West 420 483 38,000  Level Toronto Center
01:03PM 43.5000 -80.1667 262° West 420 483 38,000  Level Toronto Center
01:04PM 43.4667 -80.3167 253° West 420 483 38,000  Level Toronto Center
01:05PM 43.4500 -80.4833 262° West 420 483 38,000  Level Toronto Center
01:06PM 43.4333 -80.6500 262° West 420 483 38,000  Level Toronto Center
01:07PM 43.4167 -80.8000 261° West 420 483 38,000  Level Toronto Center
01:08PM 43.3833 -80.9667 255° West 420 483 38,000  Level Toronto Center
01:09PM 43.3500 -81.1167 253° West 430 495 38,000  Level Toronto Center
01:10PM 43.3333 -81.2833 262° West 430 495 38,000  Level Toronto Center
01:11PM 43.3167 -81.4500 262° West 430 495 38,000  Level Toronto Center
01:12PM 43.3000 -81.6000 261° West 430 495 38,000  Level Toronto Center
01:13PM 43.2667 -81.7667 255° West 430 495 38,000  Level Toronto Center
01:14PM 43.2333 -81.9167 253° West 420 483 38,000  Level Toronto Center
01:15PM 43.2167 -82.0833 262° West 420 483 38,000  Level Toronto Center
01:16PM 43.2000 -82.2167 260° West 420 483 38,000  Level Toronto Center
01:17PM 43.1667 -82.4000 256° West 420 483 38,000  Level Toronto Center
01:18PM 43.1650 -82.5244 269° West 428 493 38,000  Level Cleveland Center
01:19PM 43.1392 -82.6800 257° West 428 493 38,000  Level Cleveland Center
01:20PM 43.1156 -82.8328 258° West 428 493 38,000 -60 Level Cleveland Center
01:21PM 43.0917 -82.9828 258° West 428 493 37,900 -600 Descending Cleveland Center
01:22PM 43.0656 -83.1353 257° West 423 487 36,900 -1,020 Descending Cleveland Center
01:23PM 43.0436 -83.2764 258° West 408 470 35,900 -1,020 Descending Cleveland Center
01:24PM 43.0214 -83.4172 258° West 397 457 34,900 -1,020 Descending Cleveland Center
01:25PM 42.9992 -83.5556 258° West 397 457 33,900 -1,020 Descending Cleveland Center
01:26PM 42.9722 -83.7044 256° West 397 457 32,900 -1,020 Descending Cleveland Center
01:27PM 42.9556 -83.8569 262° West 403 464 31,900 -1,020 Descending Cleveland Center
01:28PM 42.9406 -84.0178 263° West 419 482 30,900 -1,020 Descending Cleveland Center
01:29PM 42.9231 -84.1786 262° West 431 496 29,900 -1,080 Descending Cleveland Center
01:30PM 42.9050 -84.3506 262° West 431 496 28,800 -960 Descending Cleveland Center
01:31PM 42.9031 -84.4128 268° West 427 491 28,400 -540 Descending Chicago Center
01:32PM 42.8836 -84.6025 262° West 423 487 28,000 -240 Descending Chicago Center
01:33PM 42.8664 -84.7603 262° West 422 486 28,000  Level Chicago Center
01:34PM 42.8472 -84.9192 261° West 425 489 28,000  Level Chicago Center
01:35PM 42.8194 -85.0725 256° West 420 483 28,000 -420 Level Chicago Center
01:36PM 42.7944 -85.2256 258° West 415 478 27,200 -1,020 Descending Chicago Center
01:37PM 42.7678 -85.3744 256° West 409 471 26,000 -1,200 Descending Chicago Center
01:38PM 42.7425 -85.5222 257° West 403 464 24,800 -1,320 Descending Chicago Center
01:39PM 42.7114 -85.7011 257° West 403 464 23,400 -1,320 Descending Chicago Center
01:40PM 42.6853 -85.8456 256° West 395 455 22,200 -1,260 Descending Chicago Center
01:41PM 42.6608 -85.9875 257° West 386 444 20,900 -1,080 Descending Chicago Center
01:42PM 42.6356 -86.1300 256° West 385 443 20,000 -480 Descending Chicago Center
01:43PM 42.6106 -86.2700 256° West 380 437 20,000  Level Chicago Center
01:44PM 42.5839 -86.4094 255° West 383 441 20,000 -480 Level Chicago Center
01:45PM 42.5592 -86.5503 257° West 385 443 19,100 -1,800 Descending Chicago Center
01:46PM 42.5339 -86.6897 256° West 381 438 16,400 -2,760 Descending Chicago Center
01:47PM 42.5058 -86.8544 257° West 376 433 13,400 -2,460 Descending Chicago Center
01:48PM 42.4814 -86.9819 255° West 359 413 11,400 -1,620 Descending Chicago Center
01:49PM 42.4561 -87.1033 254° West 341 392 10,100 -840 Descending Chicago Center
01:50PM 42.4269 -87.2108 250° West 301 346 9,800 -540 Descending Chicago Center
01:51PM 42.3867 -87.2864 234° Southwest 284 327 9,000 -420 Descending Chicago Center
01:52PM 42.3056 -87.2794 176° South 288 331 9,000 -360 Level Chicago Center
01:53PM 42.2267 -87.2939 188° South 299 344 8,300 -1,020 Descending Chicago Center
01:54PM 42.1381 -87.3247 194° South 277 319 7,000 -660 Descending Chicago Center
01:55PM 42.0628 -87.3489 193° South 279 321 7,000  Level Chicago Center
01:56PM 41.9972 -87.3742 196° South 252 290 7,000  Level Chicago Center
01:57PM 41.9822 -87.4525 256° West 227 261 7,000 -600 Level Chicago Center
01:59PM 41.9819 -87.5350 270° West 222 255 5,800 -1,200 Descending Chicago Center
02:00PM 41.9828 -87.6181 271° West 225 259 4,500 -1,260 Descending Chicago Center
02:01PM 41.9850 -87.7092 272° West 217 250 3,300 -1,080 Descending Chicago Center
02:02PM 41.9844 -87.7775 269° West 202 232 2,400 -720 Descending Chicago Center
02:03PM 41.9850 -87.8336 271° West 181 208 1,900 -540 Descending Chicago Center
02:04PM 41.9853 -87.8758 271° West 161 185 1,300 -600 Descending Chicago Center
02:06PM 41.9667 -87.9000 206° Southwest  Level FlightAware Approximate